sensor_id;sensor_type;location;lat;lon;timestamp;P1;durP1;ratioP1;P2;durP2;ratioP2
25950;SDS011;13748;52.240;6.002;2022-09-09T00:07:46;8.27;;;4.20;;
25950;SDS011;13748;52.240;6.002;2022-09-09T00:10:23;8.30;;;4.17;;
25950;SDS011;13748;52.240;6.002;2022-09-09T00:21:17;5.10;;;3.00;;
25950;SDS011;13748;52.240;6.002;2022-09-09T00:23:50;3.93;;;3.10;;
25950;SDS011;13748;52.240;6.002;2022-09-09T00:29:41;8.30;;;3.00;;
25950;SDS011;13748;52.240;6.002;2022-09-09T00:32:35;2.97;;;2.67;;
25950;SDS011;13748;52.240;6.002;2022-09-09T00:35:04;4.00;;;2.77;;
25950;SDS011;13748;52.240;6.002;2022-09-09T00:38:01;5.50;;;3.17;;
25950;SDS011;13748;52.240;6.002;2022-09-09T00:41:00;5.93;;;3.40;;
25950;SDS011;13748;52.240;6.002;2022-09-09T00:43:35;6.53;;;3.30;;
25950;SDS011;13748;52.240;6.002;2022-09-09T00:49:09;4.60;;;3.67;;
25950;SDS011;13748;52.240;6.002;2022-09-09T00:55:16;7.00;;;3.40;;
25950;SDS011;13748;52.240;6.002;2022-09-09T00:57:52;5.10;;;3.53;;
25950;SDS011;13748;52.240;6.002;2022-09-09T01:00:35;6.87;;;4.00;;
25950;SDS011;13748;52.240;6.002;2022-09-09T01:06:16;5.63;;;4.10;;
25950;SDS011;13748;52.240;6.002;2022-09-09T01:09:02;7.60;;;3.90;;
25950;SDS011;13748;52.240;6.002;2022-09-09T01:18:04;6.40;;;4.37;;
25950;SDS011;13748;52.240;6.002;2022-09-09T01:20:26;6.37;;;3.70;;
25950;SDS011;13748;52.240;6.002;2022-09-09T01:23:26;6.90;;;4.50;;
25950;SDS011;13748;52.240;6.002;2022-09-09T01:29:18;5.50;;;3.80;;
25950;SDS011;13748;52.240;6.002;2022-09-09T01:35:15;7.20;;;4.20;;
25950;SDS011;13748;52.240;6.002;2022-09-09T01:37:48;7.53;;;4.63;;
25950;SDS011;13748;52.240;6.002;2022-09-09T01:40:17;7.00;;;5.07;;
25950;SDS011;13748;52.240;6.002;2022-09-09T01:42:55;8.47;;;5.30;;
25950;SDS011;13748;52.240;6.002;2022-09-09T01:45:26;8.57;;;4.63;;
25950;SDS011;13748;52.240;6.002;2022-09-09T01:47:57;6.33;;;4.83;;
25950;SDS011;13748;52.240;6.002;2022-09-09T01:50:30;9.23;;;4.93;;
25950;SDS011;13748;52.240;6.002;2022-09-09T01:53:05;9.00;;;5.10;;
25950;SDS011;13748;52.240;6.002;2022-09-09T01:55:40;9.17;;;5.10;;
25950;SDS011;13748;52.240;6.002;2022-09-09T02:03:54;8.17;;;5.17;;
25950;SDS011;13748;52.240;6.002;2022-09-09T02:06:30;9.90;;;5.20;;
25950;SDS011;13748;52.240;6.002;2022-09-09T02:09:07;6.97;;;4.60;;
25950;SDS011;13748;52.240;6.002;2022-09-09T02:11:38;7.23;;;4.77;;
25950;SDS011;13748;52.240;6.002;2022-09-09T02:14:10;10.00;;;5.33;;
25950;SDS011;13748;52.240;6.002;2022-09-09T02:22:07;10.13;;;5.20;;
25950;SDS011;13748;52.240;6.002;2022-09-09T02:24:39;7.53;;;4.37;;
25950;SDS011;13748;52.240;6.002;2022-09-09T02:27:08;5.73;;;3.87;;
25950;SDS011;13748;52.240;6.002;2022-09-09T02:29:37;9.47;;;4.10;;
25950;SDS011;13748;52.240;6.002;2022-09-09T02:32:11;6.90;;;3.70;;
25950;SDS011;13748;52.240;6.002;2022-09-09T02:34:56;8.13;;;4.00;;
25950;SDS011;13748;52.240;6.002;2022-09-09T02:37:36;7.00;;;3.60;;
25950;SDS011;13748;52.240;6.002;2022-09-09T02:40:09;7.97;;;3.87;;
25950;SDS011;13748;52.240;6.002;2022-09-09T02:42:45;5.87;;;3.60;;
25950;SDS011;13748;52.240;6.002;2022-09-09T02:45:19;6.47;;;4.20;;
25950;SDS011;13748;52.240;6.002;2022-09-09T02:48:21;7.03;;;4.23;;
25950;SDS011;13748;52.240;6.002;2022-09-09T02:51:16;8.33;;;4.37;;
25950;SDS011;13748;52.240;6.002;2022-09-09T02:53:59;6.77;;;3.93;;
25950;SDS011;13748;52.240;6.002;2022-09-09T02:56:46;6.13;;;3.77;;
25950;SDS011;13748;52.240;6.002;2022-09-09T02:59:29;6.47;;;5.17;;
25950;SDS011;13748;52.240;6.002;2022-09-09T03:02:03;8.10;;;4.70;;
25950;SDS011;13748;52.240;6.002;2022-09-09T03:04:31;8.90;;;4.77;;
25950;SDS011;13748;52.240;6.002;2022-09-09T03:07:04;8.23;;;4.53;;
25950;SDS011;13748;52.240;6.002;2022-09-09T03:09:33;10.43;;;5.17;;
25950;SDS011;13748;52.240;6.002;2022-09-09T03:12:05;6.90;;;4.90;;
25950;SDS011;13748;52.240;6.002;2022-09-09T03:14:37;6.93;;;4.63;;
25950;SDS011;13748;52.240;6.002;2022-09-09T03:17:10;9.67;;;5.43;;
25950;SDS011;13748;52.240;6.002;2022-09-09T03:19:42;8.20;;;4.80;;
25950;SDS011;13748;52.240;6.002;2022-09-09T03:22:10;9.17;;;4.83;;
25950;SDS011;13748;52.240;6.002;2022-09-09T03:24:43;9.37;;;4.90;;
25950;SDS011;13748;52.240;6.002;2022-09-09T03:27:24;7.43;;;5.03;;
25950;SDS011;13748;52.240;6.002;2022-09-09T03:29:57;8.37;;;5.30;;
25950;SDS011;13748;52.240;6.002;2022-09-09T03:32:25;8.43;;;5.20;;
25950;SDS011;13748;52.240;6.002;2022-09-09T03:34:56;9.70;;;5.80;;
25950;SDS011;13748;52.240;6.002;2022-09-09T03:37:28;9.27;;;6.10;;
25950;SDS011;13748;52.240;6.002;2022-09-09T03:39:56;8.43;;;5.93;;
25950;SDS011;13748;52.240;6.002;2022-09-09T03:42:24;8.00;;;5.67;;
25950;SDS011;13748;52.240;6.002;2022-09-09T03:44:55;9.03;;;5.50;;
25950;SDS011;13748;52.240;6.002;2022-09-09T03:47:41;10.50;;;5.53;;
25950;SDS011;13748;52.240;6.002;2022-09-09T03:50:08;12.40;;;5.97;;
25950;SDS011;13748;52.240;6.002;2022-09-09T03:53:05;10.27;;;6.50;;
25950;SDS011;13748;52.240;6.002;2022-09-09T03:55:37;9.30;;;5.63;;
25950;SDS011;13748;52.240;6.002;2022-09-09T03:58:16;8.93;;;5.60;;
25950;SDS011;13748;52.240;6.002;2022-09-09T04:00:57;12.93;;;6.30;;
25950;SDS011;13748;52.240;6.002;2022-09-09T04:03:29;10.77;;;6.50;;
25950;SDS011;13748;52.240;6.002;2022-09-09T04:06:05;8.00;;;5.93;;
25950;SDS011;13748;52.240;6.002;2022-09-09T04:08:39;11.70;;;6.43;;
25950;SDS011;13748;52.240;6.002;2022-09-09T04:11:10;7.47;;;6.20;;
25950;SDS011;13748;52.240;6.002;2022-09-09T04:13:46;11.03;;;6.33;;
25950;SDS011;13748;52.240;6.002;2022-09-09T04:16:19;10.33;;;7.00;;
25950;SDS011;13748;52.240;6.002;2022-09-09T04:18:49;10.97;;;7.40;;
25950;SDS011;13748;52.240;6.002;2022-09-09T04:21:17;11.40;;;6.73;;
25950;SDS011;13748;52.240;6.002;2022-09-09T04:23:44;11.73;;;6.83;;
25950;SDS011;13748;52.240;6.002;2022-09-09T04:26:17;12.57;;;7.87;;
25950;SDS011;13748;52.240;6.002;2022-09-09T04:28:49;13.00;;;8.13;;
25950;SDS011;13748;52.240;6.002;2022-09-09T04:31:18;13.13;;;7.63;;
25950;SDS011;13748;52.240;6.002;2022-09-09T04:33:49;11.03;;;7.20;;
25950;SDS011;13748;52.240;6.002;2022-09-09T04:36:22;13.67;;;7.83;;
25950;SDS011;13748;52.240;6.002;2022-09-09T04:38:49;12.83;;;7.73;;
25950;SDS011;13748;52.240;6.002;2022-09-09T04:41:21;16.40;;;8.70;;
25950;SDS011;13748;52.240;6.002;2022-09-09T04:43:49;11.30;;;7.57;;
25950;SDS011;13748;52.240;6.002;2022-09-09T04:46:20;10.93;;;7.80;;
25950;SDS011;13748;52.240;6.002;2022-09-09T04:48:53;11.67;;;7.57;;
25950;SDS011;13748;52.240;6.002;2022-09-09T04:51:24;12.37;;;7.20;;
25950;SDS011;13748;52.240;6.002;2022-09-09T04:53:58;13.70;;;7.97;;
25950;SDS011;13748;52.240;6.002;2022-09-09T04:56:25;13.80;;;7.33;;
25950;SDS011;13748;52.240;6.002;2022-09-09T04:59:06;12.53;;;7.87;;
25950;SDS011;13748;52.240;6.002;2022-09-09T05:01:35;14.43;;;8.40;;
25950;SDS011;13748;52.240;6.002;2022-09-09T05:04:13;15.10;;;8.27;;
25950;SDS011;13748;52.240;6.002;2022-09-09T05:06:49;14.30;;;8.33;;
25950;SDS011;13748;52.240;6.002;2022-09-09T05:09:21;15.13;;;8.13;;
25950;SDS011;13748;52.240;6.002;2022-09-09T05:11:56;17.30;;;8.13;;
25950;SDS011;13748;52.240;6.002;2022-09-09T05:14:24;16.00;;;9.00;;
25950;SDS011;13748;52.240;6.002;2022-09-09T05:20:23;15.37;;;8.50;;
25950;SDS011;13748;52.240;6.002;2022-09-09T05:23:05;16.77;;;8.00;;
25950;SDS011;13748;52.240;6.002;2022-09-09T05:25:37;14.87;;;9.17;;
25950;SDS011;13748;52.240;6.002;2022-09-09T05:28:16;15.10;;;8.97;;
25950;SDS011;13748;52.240;6.002;2022-09-09T05:30:46;14.93;;;8.33;;
25950;SDS011;13748;52.240;6.002;2022-09-09T05:37:15;15.30;;;9.60;;
25950;SDS011;13748;52.240;6.002;2022-09-09T05:39:55;18.43;;;10.47;;
25950;SDS011;13748;52.240;6.002;2022-09-09T05:42:46;16.50;;;9.60;;
25950;SDS011;13748;52.240;6.002;2022-09-09T05:45:43;15.27;;;8.93;;
25950;SDS011;13748;52.240;6.002;2022-09-09T05:48:14;15.90;;;9.43;;
25950;SDS011;13748;52.240;6.002;2022-09-09T05:50:42;17.77;;;9.43;;
25950;SDS011;13748;52.240;6.002;2022-09-09T05:53:18;15.03;;;8.83;;
25950;SDS011;13748;52.240;6.002;2022-09-09T05:55:48;15.93;;;9.60;;
25950;SDS011;13748;52.240;6.002;2022-09-09T05:58:34;17.63;;;9.23;;
25950;SDS011;13748;52.240;6.002;2022-09-09T06:01:09;15.27;;;8.70;;
25950;SDS011;13748;52.240;6.002;2022-09-09T06:04:21;13.57;;;8.47;;
25950;SDS011;13748;52.240;6.002;2022-09-09T06:07:02;13.90;;;8.23;;
25950;SDS011;13748;52.240;6.002;2022-09-09T06:10:07;14.27;;;8.90;;
25950;SDS011;13748;52.240;6.002;2022-09-09T06:12:47;14.67;;;8.23;;
25950;SDS011;13748;52.240;6.002;2022-09-09T06:15:32;14.73;;;8.37;;
25950;SDS011;13748;52.240;6.002;2022-09-09T06:18:03;11.73;;;7.00;;
25950;SDS011;13748;52.240;6.002;2022-09-09T06:20:42;11.87;;;7.83;;
25950;SDS011;13748;52.240;6.002;2022-09-09T06:23:49;11.30;;;7.70;;
25950;SDS011;13748;52.240;6.002;2022-09-09T06:26:32;13.37;;;7.97;;
25950;SDS011;13748;52.240;6.002;2022-09-09T06:29:19;12.50;;;7.93;;
25950;SDS011;13748;52.240;6.002;2022-09-09T06:35:31;13.73;;;7.80;;
25950;SDS011;13748;52.240;6.002;2022-09-09T06:37:57;17.07;;;7.67;;
25950;SDS011;13748;52.240;6.002;2022-09-09T06:40:24;14.60;;;7.33;;
25950;SDS011;13748;52.240;6.002;2022-09-09T06:42:51;13.67;;;8.13;;
25950;SDS011;13748;52.240;6.002;2022-09-09T06:45:22;11.97;;;6.93;;
25950;SDS011;13748;52.240;6.002;2022-09-09T06:47:49;14.47;;;7.47;;
25950;SDS011;13748;52.240;6.002;2022-09-09T06:50:16;11.90;;;6.57;;
25950;SDS011;13748;52.240;6.002;2022-09-09T06:52:42;13.00;;;6.20;;
25950;SDS011;13748;52.240;6.002;2022-09-09T06:55:13;13.80;;;6.18;;
25950;SDS011;13748;52.240;6.002;2022-09-09T06:57:45;14.97;;;6.07;;
25950;SDS011;13748;52.240;6.002;2022-09-09T07:00:12;12.27;;;6.63;;
25950;SDS011;13748;52.240;6.002;2022-09-09T07:02:42;9.32;;;5.53;;
25950;SDS011;13748;52.240;6.002;2022-09-09T07:05:10;8.45;;;4.47;;
25950;SDS011;13748;52.240;6.002;2022-09-09T07:07:37;8.10;;;4.57;;
25950;SDS011;13748;52.240;6.002;2022-09-09T07:10:04;10.32;;;5.40;;
25950;SDS011;13748;52.240;6.002;2022-09-09T07:12:31;10.88;;;4.93;;
25950;SDS011;13748;52.240;6.002;2022-09-09T07:14:58;10.13;;;5.22;;
25950;SDS011;13748;52.240;6.002;2022-09-09T07:17:25;5.93;;;4.15;;
25950;SDS011;13748;52.240;6.002;2022-09-09T07:19:54;9.70;;;3.70;;
25950;SDS011;13748;52.240;6.002;2022-09-09T07:22:21;7.30;;;3.72;;
25950;SDS011;13748;52.240;6.002;2022-09-09T07:24:48;9.27;;;3.72;;
25950;SDS011;13748;52.240;6.002;2022-09-09T07:27:15;14.93;;;3.83;;
25950;SDS011;13748;52.240;6.002;2022-09-09T07:29:42;8.88;;;4.05;;
25950;SDS011;13748;52.240;6.002;2022-09-09T07:32:09;6.25;;;3.67;;
25950;SDS011;13748;52.240;6.002;2022-09-09T07:34:39;8.32;;;3.88;;
25950;SDS011;13748;52.240;6.002;2022-09-09T07:37:06;8.98;;;4.03;;
25950;SDS011;13748;52.240;6.002;2022-09-09T07:39:33;11.57;;;3.50;;
25950;SDS011;13748;52.240;6.002;2022-09-09T07:42:00;7.68;;;3.65;;
25950;SDS011;13748;52.240;6.002;2022-09-09T07:44:27;8.75;;;2.97;;
25950;SDS011;13748;52.240;6.002;2022-09-09T07:46:58;6.43;;;3.13;;
25950;SDS011;13748;52.240;6.002;2022-09-09T07:49:25;9.82;;;3.28;;
25950;SDS011;13748;52.240;6.002;2022-09-09T07:51:57;7.78;;;3.10;;
25950;SDS011;13748;52.240;6.002;2022-09-09T07:54:25;9.50;;;3.20;;
25950;SDS011;13748;52.240;6.002;2022-09-09T07:56:52;5.05;;;3.08;;
25950;SDS011;13748;52.240;6.002;2022-09-09T07:59:19;6.47;;;3.33;;
25950;SDS011;13748;52.240;6.002;2022-09-09T08:01:49;10.15;;;3.35;;
25950;SDS011;13748;52.240;6.002;2022-09-09T08:04:20;9.32;;;3.05;;
25950;SDS011;13748;52.240;6.002;2022-09-09T08:06:49;8.23;;;3.25;;
25950;SDS011;13748;52.240;6.002;2022-09-09T08:09:20;6.90;;;2.80;;
25950;SDS011;13748;52.240;6.002;2022-09-09T08:11:51;9.48;;;2.92;;
25950;SDS011;13748;52.240;6.002;2022-09-09T08:14:18;8.73;;;2.60;;
25950;SDS011;13748;52.240;6.002;2022-09-09T08:16:45;11.70;;;3.63;;
25950;SDS011;13748;52.240;6.002;2022-09-09T08:19:13;9.07;;;3.28;;
25950;SDS011;13748;52.240;6.002;2022-09-09T08:21:44;6.88;;;3.08;;
25950;SDS011;13748;52.240;6.002;2022-09-09T08:24:11;11.77;;;2.90;;
25950;SDS011;13748;52.240;6.002;2022-09-09T08:26:44;6.22;;;3.08;;
25950;SDS011;13748;52.240;6.002;2022-09-09T08:29:15;7.85;;;3.13;;
25950;SDS011;13748;52.240;6.002;2022-09-09T08:31:44;8.32;;;3.00;;
25950;SDS011;13748;52.240;6.002;2022-09-09T08:34:11;9.25;;;3.00;;
25950;SDS011;13748;52.240;6.002;2022-09-09T08:36:42;6.82;;;3.15;;
25950;SDS011;13748;52.240;6.002;2022-09-09T08:39:11;9.02;;;2.85;;
25950;SDS011;13748;52.240;6.002;2022-09-09T08:47:24;8.65;;;3.15;;
25950;SDS011;13748;52.240;6.002;2022-09-09T08:52:57;9.40;;;2.85;;
25950;SDS011;13748;52.240;6.002;2022-09-09T08:55:41;8.18;;;3.13;;
25950;SDS011;13748;52.240;6.002;2022-09-09T08:58:24;8.43;;;2.95;;
25950;SDS011;13748;52.240;6.002;2022-09-09T09:09:08;7.72;;;3.42;;
25950;SDS011;13748;52.240;6.002;2022-09-09T09:11:46;8.82;;;3.08;;
25950;SDS011;13748;52.240;6.002;2022-09-09T09:14:27;9.40;;;2.88;;
25950;SDS011;13748;52.240;6.002;2022-09-09T09:17:00;7.75;;;2.83;;
25950;SDS011;13748;52.240;6.002;2022-09-09T09:19:33;12.63;;;2.97;;
25950;SDS011;13748;52.240;6.002;2022-09-09T09:22:06;8.07;;;2.90;;
25950;SDS011;13748;52.240;6.002;2022-09-09T09:27:24;14.60;;;2.80;;
25950;SDS011;13748;52.240;6.002;2022-09-09T09:30:17;7.60;;;3.05;;
25950;SDS011;13748;52.240;6.002;2022-09-09T09:35:21;9.27;;;3.03;;
25950;SDS011;13748;52.240;6.002;2022-09-09T09:37:49;5.85;;;2.72;;
25950;SDS011;13748;52.240;6.002;2022-09-09T09:40:37;10.30;;;3.55;;
25950;SDS011;13748;52.240;6.002;2022-09-09T09:43:18;5.60;;;2.90;;
25950;SDS011;13748;52.240;6.002;2022-09-09T09:45:49;12.35;;;4.30;;
25950;SDS011;13748;52.240;6.002;2022-09-09T09:48:35;7.38;;;3.05;;
25950;SDS011;13748;52.240;6.002;2022-09-09T09:51:06;7.35;;;2.90;;
25950;SDS011;13748;52.240;6.002;2022-09-09T09:53:37;7.72;;;2.60;;
25950;SDS011;13748;52.240;6.002;2022-09-09T09:56:05;8.35;;;2.50;;
25950;SDS011;13748;52.240;6.002;2022-09-09T10:01:04;8.95;;;2.50;;
25950;SDS011;13748;52.240;6.002;2022-09-09T10:03:33;5.47;;;2.45;;
25950;SDS011;13748;52.240;6.002;2022-09-09T10:06:07;9.93;;;2.40;;
25950;SDS011;13748;52.240;6.002;2022-09-09T10:08:34;4.63;;;1.88;;
25950;SDS011;13748;52.240;6.002;2022-09-09T10:11:29;9.13;;;2.45;;
25950;SDS011;13748;52.240;6.002;2022-09-09T10:14:19;6.55;;;2.28;;
25950;SDS011;13748;52.240;6.002;2022-09-09T10:19:36;5.03;;;1.90;;
25950;SDS011;13748;52.240;6.002;2022-09-09T10:22:19;8.38;;;2.58;;
25950;SDS011;13748;52.240;6.002;2022-09-09T10:28:04;7.68;;;2.40;;
25950;SDS011;13748;52.240;6.002;2022-09-09T10:31:17;4.75;;;2.05;;
25950;SDS011;13748;52.240;6.002;2022-09-09T10:34:32;6.40;;;2.40;;
25950;SDS011;13748;52.240;6.002;2022-09-09T10:37:04;8.48;;;2.42;;
25950;SDS011;13748;52.240;6.002;2022-09-09T10:39:54;3.35;;;1.70;;
25950;SDS011;13748;52.240;6.002;2022-09-09T10:42:41;8.75;;;2.22;;
25950;SDS011;13748;52.240;6.002;2022-09-09T10:45:20;8.50;;;2.38;;
25950;SDS011;13748;52.240;6.002;2022-09-09T10:51:13;8.20;;;2.30;;
25950;SDS011;13748;52.240;6.002;2022-09-09T10:53:52;5.70;;;1.80;;
25950;SDS011;13748;52.240;6.002;2022-09-09T10:56:32;7.85;;;1.90;;
25950;SDS011;13748;52.240;6.002;2022-09-09T10:59:12;9.45;;;2.13;;
25950;SDS011;13748;52.240;6.002;2022-09-09T11:04:40;5.10;;;1.98;;
25950;SDS011;13748;52.240;6.002;2022-09-09T11:07:12;8.93;;;1.85;;
25950;SDS011;13748;52.240;6.002;2022-09-09T11:09:49;8.73;;;2.35;;
25950;SDS011;13748;52.240;6.002;2022-09-09T11:12:22;8.00;;;2.40;;
25950;SDS011;13748;52.240;6.002;2022-09-09T11:14:53;6.10;;;2.10;;
25950;SDS011;13748;52.240;6.002;2022-09-09T11:17:38;10.77;;;2.75;;
25950;SDS011;13748;52.240;6.002;2022-09-09T11:20:18;5.75;;;1.83;;
25950;SDS011;13748;52.240;6.002;2022-09-09T11:22:50;4.70;;;1.80;;
25950;SDS011;13748;52.240;6.002;2022-09-09T11:25:42;6.28;;;1.67;;
25950;SDS011;13748;52.240;6.002;2022-09-09T11:31:17;6.78;;;2.05;;
25950;SDS011;13748;52.240;6.002;2022-09-09T11:36:56;9.40;;;2.35;;
25950;SDS011;13748;52.240;6.002;2022-09-09T11:44:52;7.25;;;2.08;;
25950;SDS011;13748;52.240;6.002;2022-09-09T11:47:25;5.20;;;2.13;;
25950;SDS011;13748;52.240;6.002;2022-09-09T11:50:10;8.70;;;2.38;;
25950;SDS011;13748;52.240;6.002;2022-09-09T11:55:31;8.05;;;2.45;;
25950;SDS011;13748;52.240;6.002;2022-09-09T11:58:04;6.65;;;2.13;;
25950;SDS011;13748;52.240;6.002;2022-09-09T12:00:42;6.32;;;2.28;;
25950;SDS011;13748;52.240;6.002;2022-09-09T12:03:59;8.38;;;2.85;;
25950;SDS011;13748;52.240;6.002;2022-09-09T12:06:31;4.78;;;2.20;;
25950;SDS011;13748;52.240;6.002;2022-09-09T12:11:49;12.98;;;2.83;;
25950;SDS011;13748;52.240;6.002;2022-09-09T12:14:23;8.77;;;2.80;;
25950;SDS011;13748;52.240;6.002;2022-09-09T12:19:40;8.45;;;3.03;;
25950;SDS011;13748;52.240;6.002;2022-09-09T12:22:12;8.05;;;2.90;;
25950;SDS011;13748;52.240;6.002;2022-09-09T12:24:50;7.28;;;2.85;;
25950;SDS011;13748;52.240;6.002;2022-09-09T12:30:16;5.53;;;2.55;;
25950;SDS011;13748;52.240;6.002;2022-09-09T12:32:44;5.10;;;1.63;;
25950;SDS011;13748;52.240;6.002;2022-09-09T12:35:19;6.60;;;1.98;;
25950;SDS011;13748;52.240;6.002;2022-09-09T12:38:22;5.65;;;1.73;;
25950;SDS011;13748;52.240;6.002;2022-09-09T12:40:56;4.28;;;1.67;;
25950;SDS011;13748;52.240;6.002;2022-09-09T12:43:24;3.67;;;1.50;;
25950;SDS011;13748;52.240;6.002;2022-09-09T12:45:57;4.65;;;1.77;;
25950;SDS011;13748;52.240;6.002;2022-09-09T12:48:36;4.78;;;1.80;;
25950;SDS011;13748;52.240;6.002;2022-09-09T12:51:07;7.38;;;1.92;;
25950;SDS011;13748;52.240;6.002;2022-09-09T12:53:50;5.25;;;2.03;;
25950;SDS011;13748;52.240;6.002;2022-09-09T12:56:19;4.80;;;1.55;;
25950;SDS011;13748;52.240;6.002;2022-09-09T12:58:59;4.18;;;1.50;;
25950;SDS011;13748;52.240;6.002;2022-09-09T13:01:30;3.47;;;1.45;;
25950;SDS011;13748;52.240;6.002;2022-09-09T13:04:02;4.40;;;1.73;;
25950;SDS011;13748;52.240;6.002;2022-09-09T13:06:31;2.30;;;1.40;;
25950;SDS011;13748;52.240;6.002;2022-09-09T13:09:00;4.85;;;1.80;;
25950;SDS011;13748;52.240;6.002;2022-09-09T13:11:31;3.42;;;1.48;;
25950;SDS011;13748;52.240;6.002;2022-09-09T13:14:04;3.58;;;1.48;;
25950;SDS011;13748;52.240;6.002;2022-09-09T13:16:33;3.55;;;1.45;;
25950;SDS011;13748;52.240;6.002;2022-09-09T13:19:14;5.05;;;1.63;;
25950;SDS011;13748;52.240;6.002;2022-09-09T13:21:42;4.50;;;1.63;;
25950;SDS011;13748;52.240;6.002;2022-09-09T13:24:24;7.57;;;1.80;;
25950;SDS011;13748;52.240;6.002;2022-09-09T13:26:59;3.78;;;1.45;;
25950;SDS011;13748;52.240;6.002;2022-09-09T13:29:29;5.50;;;2.00;;
25950;SDS011;13748;52.240;6.002;2022-09-09T13:32:04;3.70;;;1.55;;
25950;SDS011;13748;52.240;6.002;2022-09-09T13:34:35;3.50;;;2.00;;
25950;SDS011;13748;52.240;6.002;2022-09-09T13:37:03;4.50;;;1.55;;
25950;SDS011;13748;52.240;6.002;2022-09-09T13:39:33;4.57;;;1.83;;
25950;SDS011;13748;52.240;6.002;2022-09-09T13:42:02;7.40;;;1.95;;
25950;SDS011;13748;52.240;6.002;2022-09-09T13:44:30;3.80;;;1.65;;
25950;SDS011;13748;52.240;6.002;2022-09-09T13:47:04;4.97;;;1.90;;
25950;SDS011;13748;52.240;6.002;2022-09-09T13:49:35;3.90;;;1.55;;
25950;SDS011;13748;52.240;6.002;2022-09-09T13:52:09;3.70;;;1.63;;
25950;SDS011;13748;52.240;6.002;2022-09-09T13:54:38;3.22;;;1.55;;
25950;SDS011;13748;52.240;6.002;2022-09-09T13:57:12;5.18;;;1.80;;
25950;SDS011;13748;52.240;6.002;2022-09-09T13:59:47;6.97;;;2.15;;
25950;SDS011;13748;52.240;6.002;2022-09-09T14:02:31;2.83;;;1.73;;
25950;SDS011;13748;52.240;6.002;2022-09-09T14:05:00;5.35;;;1.90;;
25950;SDS011;13748;52.240;6.002;2022-09-09T14:07:27;2.58;;;1.88;;
25950;SDS011;13748;52.240;6.002;2022-09-09T14:09:54;4.20;;;1.98;;
25950;SDS011;13748;52.240;6.002;2022-09-09T14:12:20;4.03;;;1.98;;
25950;SDS011;13748;52.240;6.002;2022-09-09T14:14:48;5.50;;;2.13;;
25950;SDS011;13748;52.240;6.002;2022-09-09T14:17:15;6.32;;;1.75;;
25950;SDS011;13748;52.240;6.002;2022-09-09T14:19:43;4.45;;;1.90;;
25950;SDS011;13748;52.240;6.002;2022-09-09T14:22:12;5.07;;;1.90;;
25950;SDS011;13748;52.240;6.002;2022-09-09T14:24:38;4.03;;;2.10;;
25950;SDS011;13748;52.240;6.002;2022-09-09T14:27:08;4.22;;;1.77;;
25950;SDS011;13748;52.240;6.002;2022-09-09T14:29:34;4.85;;;1.95;;
25950;SDS011;13748;52.240;6.002;2022-09-09T14:32:01;3.97;;;1.92;;
25950;SDS011;13748;52.240;6.002;2022-09-09T14:34:29;4.05;;;1.70;;
25950;SDS011;13748;52.240;6.002;2022-09-09T14:36:56;3.50;;;1.92;;
25950;SDS011;13748;52.240;6.002;2022-09-09T14:39:23;4.40;;;1.60;;
25950;SDS011;13748;52.240;6.002;2022-09-09T14:41:52;4.95;;;2.10;;
25950;SDS011;13748;52.240;6.002;2022-09-09T14:44:19;8.32;;;2.38;;
25950;SDS011;13748;52.240;6.002;2022-09-09T14:46:46;3.38;;;1.80;;
25950;SDS011;13748;52.240;6.002;2022-09-09T14:49:12;4.85;;;2.00;;
25950;SDS011;13748;52.240;6.002;2022-09-09T14:51:39;3.53;;;2.10;;
25950;SDS011;13748;52.240;6.002;2022-09-09T14:54:06;6.20;;;2.50;;
25950;SDS011;13748;52.240;6.002;2022-09-09T14:56:33;4.50;;;1.90;;
25950;SDS011;13748;52.240;6.002;2022-09-09T14:59:01;3.95;;;2.08;;
25950;SDS011;13748;52.240;6.002;2022-09-09T15:01:29;3.13;;;1.83;;
25950;SDS011;13748;52.240;6.002;2022-09-09T15:03:58;4.45;;;1.60;;
25950;SDS011;13748;52.240;6.002;2022-09-09T15:06:27;4.00;;;1.80;;
25950;SDS011;13748;52.240;6.002;2022-09-09T15:08:56;4.47;;;2.00;;
25950;SDS011;13748;52.240;6.002;2022-09-09T15:11:30;3.97;;;1.83;;
25950;SDS011;13748;52.240;6.002;2022-09-09T15:14:00;6.55;;;2.42;;
25950;SDS011;13748;52.240;6.002;2022-09-09T15:16:27;4.80;;;1.92;;
25950;SDS011;13748;52.240;6.002;2022-09-09T15:18:55;5.38;;;1.90;;
25950;SDS011;13748;52.240;6.002;2022-09-09T15:21:25;6.15;;;2.13;;
25950;SDS011;13748;52.240;6.002;2022-09-09T15:23:56;4.00;;;1.90;;
25950;SDS011;13748;52.240;6.002;2022-09-09T15:26:24;5.13;;;1.60;;
25950;SDS011;13748;52.240;6.002;2022-09-09T15:28:51;6.22;;;2.00;;
25950;SDS011;13748;52.240;6.002;2022-09-09T15:31:23;7.45;;;2.13;;
25950;SDS011;13748;52.240;6.002;2022-09-09T15:33:58;4.75;;;1.90;;
25950;SDS011;13748;52.240;6.002;2022-09-09T15:36:42;3.42;;;2.10;;
25950;SDS011;13748;52.240;6.002;2022-09-09T15:39:13;7.15;;;2.03;;
25950;SDS011;13748;52.240;6.002;2022-09-09T15:41:44;5.90;;;2.10;;
25950;SDS011;13748;52.240;6.002;2022-09-09T15:44:13;6.10;;;2.00;;
25950;SDS011;13748;52.240;6.002;2022-09-09T15:46:45;6.00;;;1.95;;
25950;SDS011;13748;52.240;6.002;2022-09-09T15:49:24;2.40;;;1.48;;
25950;SDS011;13748;52.240;6.002;2022-09-09T15:51:53;4.40;;;1.95;;
25950;SDS011;13748;52.240;6.002;2022-09-09T15:54:25;7.72;;;2.20;;
25950;SDS011;13748;52.240;6.002;2022-09-09T15:56:56;6.32;;;1.80;;
25950;SDS011;13748;52.240;6.002;2022-09-09T15:59:26;7.90;;;2.63;;
25950;SDS011;13748;52.240;6.002;2022-09-09T16:01:55;3.67;;;2.50;;
25950;SDS011;13748;52.240;6.002;2022-09-09T16:04:23;5.00;;;2.40;;
25950;SDS011;13748;52.240;6.002;2022-09-09T16:06:55;5.90;;;1.95;;
25950;SDS011;13748;52.240;6.002;2022-09-09T16:09:25;6.38;;;2.00;;
25950;SDS011;13748;52.240;6.002;2022-09-09T16:11:52;3.22;;;1.70;;
25950;SDS011;13748;52.240;6.002;2022-09-09T16:14:23;3.50;;;2.53;;
25950;SDS011;13748;52.240;6.002;2022-09-09T16:16:51;4.68;;;1.83;;
25950;SDS011;13748;52.240;6.002;2022-09-09T16:19:18;5.38;;;2.00;;
25950;SDS011;13748;52.240;6.002;2022-09-09T16:21:46;3.83;;;2.03;;
25950;SDS011;13748;52.240;6.002;2022-09-09T16:24:15;4.57;;;2.20;;
25950;SDS011;13748;52.240;6.002;2022-09-09T16:26:45;3.47;;;1.80;;
25950;SDS011;13748;52.240;6.002;2022-09-09T16:29:14;5.57;;;2.17;;
25950;SDS011;13748;52.240;6.002;2022-09-09T16:31:43;4.50;;;2.10;;
25950;SDS011;13748;52.240;6.002;2022-09-09T16:34:11;3.17;;;2.40;;
25950;SDS011;13748;52.240;6.002;2022-09-09T16:36:39;6.72;;;2.30;;
25950;SDS011;13748;52.240;6.002;2022-09-09T16:39:08;8.13;;;2.95;;
25950;SDS011;13748;52.240;6.002;2022-09-09T16:41:40;6.47;;;2.70;;
25950;SDS011;13748;52.240;6.002;2022-09-09T16:44:09;5.45;;;2.38;;
25950;SDS011;13748;52.240;6.002;2022-09-09T16:46:37;5.72;;;2.60;;
25950;SDS011;13748;52.240;6.002;2022-09-09T16:49:07;4.32;;;2.40;;
25950;SDS011;13748;52.240;6.002;2022-09-09T16:51:46;4.88;;;2.25;;
25950;SDS011;13748;52.240;6.002;2022-09-09T16:54:15;4.07;;;2.30;;
25950;SDS011;13748;52.240;6.002;2022-09-09T16:56:43;8.88;;;2.70;;
25950;SDS011;13748;52.240;6.002;2022-09-09T16:59:13;9.15;;;2.47;;
25950;SDS011;13748;52.240;6.002;2022-09-09T17:01:41;5.20;;;2.45;;
25950;SDS011;13748;52.240;6.002;2022-09-09T17:04:10;3.78;;;2.30;;
25950;SDS011;13748;52.240;6.002;2022-09-09T17:06:47;3.58;;;1.70;;
25950;SDS011;13748;52.240;6.002;2022-09-09T17:09:18;5.97;;;2.40;;
25950;SDS011;13748;52.240;6.002;2022-09-09T17:11:46;4.57;;;1.80;;
25950;SDS011;13748;52.240;6.002;2022-09-09T17:14:15;4.50;;;2.30;;
25950;SDS011;13748;52.240;6.002;2022-09-09T17:16:43;4.00;;;2.30;;
25950;SDS011;13748;52.240;6.002;2022-09-09T17:19:11;3.50;;;2.53;;
25950;SDS011;13748;52.240;6.002;2022-09-09T17:21:38;6.18;;;2.40;;
25950;SDS011;13748;52.240;6.002;2022-09-09T17:24:26;4.00;;;1.98;;
25950;SDS011;13748;52.240;6.002;2022-09-09T17:26:56;3.75;;;2.17;;